Главная страница
METAR-TAF:

METAR-TAF

Аэропорты :

Тбилиси, Грузия

широта: 41-40-09N, долгота: 044-57-17E, высота над уровнем моря: 495 м

Текущие метеонаблюдения

Эта сводка был подготовлена 34 минут назад, в 19:00 UTC
Ветер 6 Узел от восточный, изменяющийся между северо-восточный и восточно-юго-восточный
Температура 11°C
Влажность 50%
Давление 1035 hPa
Видимость 10 км и более
Рассеянная облачность на высоте 5400 фута
Сплошная облачность на высоте 6100 фута

METAR: UGTB 261900Z 08006KT 050V110 9999 BKN054 OVC061 11/01 Q1035 R13R/CLRD70 NOSIG

Время: 23:34 (19:34 UTC)

Прогноз

Эта сводка был подготовлена 2 часа и 34 минут назад, в 17:00 UTC
Прогноз действительный с 26-го 18 UTC до 27-го 18 UTC
Ветер 2 Узел переменных направлений
Видимость 10 км и более
Отдельные облака на высоте 4000 фута
Рассеянная облачность на высоте 6000 фута
изменения
С 27-го 07 UTC до 27-го 09 UTC
Ветер 12 Узел от юго-восточный

TAF: UGTB 261700Z 2618/2718 VRB02KT 9999 SCT040 BKN060 TX18/2712Z TN07/2702Z BECMG 2707/2709 14012KT

Метеонаблюдения и прогнозы для более 4000 аэропортов (сводки METAR и TAF).

Имеющиеся станции представлены на карте желтыми и красными точками.

Чтобы увидеть название станции, наведите на нее мышь.

Затем щелкните, чтобы увидеть метеонаблюдения и метеопрогнозы.

Управление картой: чтобы увеличить масштаб, щелкните зеленые кнопки с черным крестиком; чтобы уменьшить масштаб, щелкните зеленую кнопку с тире; для просмотра соседних карт щелкайте зеленые стрелки.


METAR-TAF: